sensor_id;sensor_type;location;lat;lon;timestamp;P1;durP1;ratioP1;P2;durP2;ratioP2
45836;SDS011;31548;51.420;-0.040;2023-02-12T00:01:10;15.23;;;8.10;;
45836;SDS011;31548;51.420;-0.040;2023-02-12T00:03:39;10.45;;;7.50;;
45836;SDS011;31548;51.420;-0.040;2023-02-12T00:06:07;12.32;;;7.43;;
45836;SDS011;31548;51.420;-0.040;2023-02-12T00:08:36;17.23;;;8.32;;
45836;SDS011;31548;51.420;-0.040;2023-02-12T00:11:10;12.05;;;8.20;;
45836;SDS011;31548;51.420;-0.040;2023-02-12T00:13:42;10.23;;;7.45;;
45836;SDS011;31548;51.420;-0.040;2023-02-12T00:16:12;14.55;;;8.18;;
45836;SDS011;31548;51.420;-0.040;2023-02-12T00:18:41;15.02;;;8.82;;
45836;SDS011;31548;51.420;-0.040;2023-02-12T00:21:09;14.73;;;8.32;;
45836;SDS011;31548;51.420;-0.040;2023-02-12T00:23:37;12.88;;;8.32;;
45836;SDS011;31548;51.420;-0.040;2023-02-12T00:26:07;14.35;;;8.15;;
45836;SDS011;31548;51.420;-0.040;2023-02-12T00:28:44;13.20;;;7.75;;
45836;SDS011;31548;51.420;-0.040;2023-02-12T00:31:16;15.10;;;8.60;;
45836;SDS011;31548;51.420;-0.040;2023-02-12T00:33:46;12.45;;;7.80;;
45836;SDS011;31548;51.420;-0.040;2023-02-12T00:36:15;11.60;;;8.30;;
45836;SDS011;31548;51.420;-0.040;2023-02-12T00:38:44;12.43;;;8.20;;
45836;SDS011;31548;51.420;-0.040;2023-02-12T00:41:12;12.02;;;7.68;;
45836;SDS011;31548;51.420;-0.040;2023-02-12T00:43:40;11.70;;;8.55;;
45836;SDS011;31548;51.420;-0.040;2023-02-12T00:46:07;13.52;;;8.10;;
45836;SDS011;31548;51.420;-0.040;2023-02-12T00:48:35;12.82;;;8.85;;
45836;SDS011;31548;51.420;-0.040;2023-02-12T00:51:03;16.73;;;9.93;;
45836;SDS011;31548;51.420;-0.040;2023-02-12T00:53:31;16.05;;;9.32;;
45836;SDS011;31548;51.420;-0.040;2023-02-12T00:55:58;11.63;;;8.27;;
45836;SDS011;31548;51.420;-0.040;2023-02-12T00:58:27;9.70;;;7.68;;
45836;SDS011;31548;51.420;-0.040;2023-02-12T01:00:54;12.73;;;8.50;;
45836;SDS011;31548;51.420;-0.040;2023-02-12T01:03:22;18.98;;;8.02;;
45836;SDS011;31548;51.420;-0.040;2023-02-12T01:05:52;12.23;;;8.10;;
45836;SDS011;31548;51.420;-0.040;2023-02-12T01:08:20;15.48;;;9.07;;
45836;SDS011;31548;51.420;-0.040;2023-02-12T01:10:55;13.15;;;8.13;;
45836;SDS011;31548;51.420;-0.040;2023-02-12T01:13:27;14.40;;;8.43;;
45836;SDS011;31548;51.420;-0.040;2023-02-12T01:16:03;15.90;;;9.30;;
45836;SDS011;31548;51.420;-0.040;2023-02-12T01:18:35;14.23;;;9.57;;
45836;SDS011;31548;51.420;-0.040;2023-02-12T01:21:08;15.13;;;9.07;;
45836;SDS011;31548;51.420;-0.040;2023-02-12T01:23:37;15.20;;;9.05;;
45836;SDS011;31548;51.420;-0.040;2023-02-12T01:26:04;13.55;;;8.63;;
45836;SDS011;31548;51.420;-0.040;2023-02-12T01:28:33;12.10;;;7.75;;
45836;SDS011;31548;51.420;-0.040;2023-02-12T01:31:00;19.02;;;8.80;;
45836;SDS011;31548;51.420;-0.040;2023-02-12T01:33:27;14.02;;;8.90;;
45836;SDS011;31548;51.420;-0.040;2023-02-12T01:35:55;14.50;;;8.48;;
45836;SDS011;31548;51.420;-0.040;2023-02-12T01:38:22;14.63;;;9.45;;
45836;SDS011;31548;51.420;-0.040;2023-02-12T01:40:50;12.32;;;8.82;;
45836;SDS011;31548;51.420;-0.040;2023-02-12T01:43:17;15.88;;;8.60;;
45836;SDS011;31548;51.420;-0.040;2023-02-12T01:45:48;15.88;;;9.73;;
45836;SDS011;31548;51.420;-0.040;2023-02-12T01:48:20;13.05;;;8.35;;
45836;SDS011;31548;51.420;-0.040;2023-02-12T01:50:50;13.45;;;9.07;;
45836;SDS011;31548;51.420;-0.040;2023-02-12T01:53:20;15.77;;;9.25;;
45836;SDS011;31548;51.420;-0.040;2023-02-12T01:55:50;13.30;;;8.60;;
45836;SDS011;31548;51.420;-0.040;2023-02-12T01:58:21;13.10;;;8.60;;
45836;SDS011;31548;51.420;-0.040;2023-02-12T02:00:52;14.98;;;8.38;;
45836;SDS011;31548;51.420;-0.040;2023-02-12T02:03:19;13.98;;;9.13;;
45836;SDS011;31548;51.420;-0.040;2023-02-12T02:06:05;10.38;;;7.53;;
45836;SDS011;31548;51.420;-0.040;2023-02-12T02:08:37;16.15;;;8.43;;
45836;SDS011;31548;51.420;-0.040;2023-02-12T02:11:09;11.30;;;8.38;;
45836;SDS011;31548;51.420;-0.040;2023-02-12T02:13:58;11.85;;;8.45;;
45836;SDS011;31548;51.420;-0.040;2023-02-12T02:33:20;9.63;;;5.33;;
45836;SDS011;31548;51.420;-0.040;2023-02-12T02:36:13;11.93;;;6.72;;
45836;SDS011;31548;51.420;-0.040;2023-02-12T02:38:55;8.63;;;6.05;;
45836;SDS011;31548;51.420;-0.040;2023-02-12T02:44:35;9.88;;;5.80;;
45836;SDS011;31548;51.420;-0.040;2023-02-12T02:47:12;8.57;;;5.35;;
45836;SDS011;31548;51.420;-0.040;2023-02-12T02:49:56;8.50;;;5.55;;
45836;SDS011;31548;51.420;-0.040;2023-02-12T02:52:33;10.52;;;5.20;;
45836;SDS011;31548;51.420;-0.040;2023-02-12T02:55:05;8.02;;;5.20;;
45836;SDS011;31548;51.420;-0.040;2023-02-12T02:57:37;10.07;;;3.65;;
45836;SDS011;31548;51.420;-0.040;2023-02-12T03:02:42;6.85;;;5.25;;
45836;SDS011;31548;51.420;-0.040;2023-02-12T03:05:38;5.97;;;4.05;;
45836;SDS011;31548;51.420;-0.040;2023-02-12T03:08:19;7.05;;;4.63;;
45836;SDS011;31548;51.420;-0.040;2023-02-12T03:10:55;8.00;;;4.85;;
45836;SDS011;31548;51.420;-0.040;2023-02-12T03:13:33;11.30;;;5.13;;
45836;SDS011;31548;51.420;-0.040;2023-02-12T03:16:27;10.27;;;5.72;;
45836;SDS011;31548;51.420;-0.040;2023-02-12T03:19:00;9.98;;;5.90;;
45836;SDS011;31548;51.420;-0.040;2023-02-12T03:21:40;8.70;;;5.30;;
45836;SDS011;31548;51.420;-0.040;2023-02-12T03:27:06;11.98;;;6.13;;
45836;SDS011;31548;51.420;-0.040;2023-02-12T03:29:44;9.40;;;5.43;;
45836;SDS011;31548;51.420;-0.040;2023-02-12T03:37:39;8.23;;;5.53;;
45836;SDS011;31548;51.420;-0.040;2023-02-12T03:43:02;10.18;;;5.65;;
45836;SDS011;31548;51.420;-0.040;2023-02-12T03:45:39;8.95;;;5.13;;
45836;SDS011;31548;51.420;-0.040;2023-02-12T03:48:15;11.05;;;5.00;;
45836;SDS011;31548;51.420;-0.040;2023-02-12T03:53:19;9.23;;;5.40;;
45836;SDS011;31548;51.420;-0.040;2023-02-12T03:55:48;7.75;;;5.07;;
45836;SDS011;31548;51.420;-0.040;2023-02-12T03:58:22;7.10;;;5.03;;
45836;SDS011;31548;51.420;-0.040;2023-02-12T04:00:53;11.90;;;4.65;;
45836;SDS011;31548;51.420;-0.040;2023-02-12T04:03:21;7.68;;;4.70;;
45836;SDS011;31548;51.420;-0.040;2023-02-12T04:05:48;10.07;;;5.03;;
45836;SDS011;31548;51.420;-0.040;2023-02-12T04:08:16;8.48;;;4.13;;
45836;SDS011;31548;51.420;-0.040;2023-02-12T04:13:37;8.25;;;4.80;;
45836;SDS011;31548;51.420;-0.040;2023-02-12T04:18:39;9.30;;;5.57;;
45836;SDS011;31548;51.420;-0.040;2023-02-12T04:24:29;7.78;;;4.78;;
45836;SDS011;31548;51.420;-0.040;2023-02-12T04:32:46;7.45;;;5.38;;
45836;SDS011;31548;51.420;-0.040;2023-02-12T04:35:23;11.02;;;5.97;;
45836;SDS011;31548;51.420;-0.040;2023-02-12T04:40:55;7.43;;;5.00;;
45836;SDS011;31548;51.420;-0.040;2023-02-12T04:43:27;9.82;;;6.00;;
45836;SDS011;31548;51.420;-0.040;2023-02-12T04:45:56;9.80;;;5.88;;
45836;SDS011;31548;51.420;-0.040;2023-02-12T04:48:24;10.45;;;7.00;;
45836;SDS011;31548;51.420;-0.040;2023-02-12T04:50:51;13.68;;;6.78;;
45836;SDS011;31548;51.420;-0.040;2023-02-12T04:53:19;11.35;;;6.53;;
45836;SDS011;31548;51.420;-0.040;2023-02-12T04:55:46;9.50;;;5.00;;
45836;SDS011;31548;51.420;-0.040;2023-02-12T04:58:15;10.65;;;6.25;;
45836;SDS011;31548;51.420;-0.040;2023-02-12T05:00:43;9.07;;;6.18;;
45836;SDS011;31548;51.420;-0.040;2023-02-12T05:03:10;10.20;;;6.18;;
45836;SDS011;31548;51.420;-0.040;2023-02-12T05:05:37;11.02;;;6.78;;
45836;SDS011;31548;51.420;-0.040;2023-02-12T05:08:05;14.55;;;6.82;;
45836;SDS011;31548;51.420;-0.040;2023-02-12T05:10:32;15.73;;;7.22;;
45836;SDS011;31548;51.420;-0.040;2023-02-12T05:12:59;11.40;;;6.95;;
45836;SDS011;31548;51.420;-0.040;2023-02-12T05:15:26;12.68;;;8.55;;
45836;SDS011;31548;51.420;-0.040;2023-02-12T05:17:54;11.45;;;7.25;;
45836;SDS011;31548;51.420;-0.040;2023-02-12T05:20:21;12.45;;;7.15;;
45836;SDS011;31548;51.420;-0.040;2023-02-12T05:22:52;10.55;;;6.70;;
45836;SDS011;31548;51.420;-0.040;2023-02-12T05:25:19;9.88;;;6.13;;
45836;SDS011;31548;51.420;-0.040;2023-02-12T05:27:46;15.40;;;7.10;;
45836;SDS011;31548;51.420;-0.040;2023-02-12T05:30:14;10.23;;;6.97;;
45836;SDS011;31548;51.420;-0.040;2023-02-12T05:32:41;9.27;;;6.50;;
45836;SDS011;31548;51.420;-0.040;2023-02-12T05:35:09;16.92;;;7.95;;
45836;SDS011;31548;51.420;-0.040;2023-02-12T05:37:36;10.63;;;6.60;;
45836;SDS011;31548;51.420;-0.040;2023-02-12T05:40:04;10.85;;;7.32;;
45836;SDS011;31548;51.420;-0.040;2023-02-12T05:42:33;12.73;;;7.95;;
45836;SDS011;31548;51.420;-0.040;2023-02-12T05:45:00;11.15;;;7.47;;
45836;SDS011;31548;51.420;-0.040;2023-02-12T05:47:27;11.50;;;6.70;;
45836;SDS011;31548;51.420;-0.040;2023-02-12T05:49:54;11.38;;;6.40;;
45836;SDS011;31548;51.420;-0.040;2023-02-12T05:52:21;10.38;;;7.07;;
45836;SDS011;31548;51.420;-0.040;2023-02-12T05:54:49;11.10;;;6.95;;
45836;SDS011;31548;51.420;-0.040;2023-02-12T05:57:16;11.93;;;6.97;;
45836;SDS011;31548;51.420;-0.040;2023-02-12T05:59:43;11.73;;;6.82;;
45836;SDS011;31548;51.420;-0.040;2023-02-12T06:02:11;15.95;;;6.78;;
45836;SDS011;31548;51.420;-0.040;2023-02-12T06:04:38;10.63;;;6.75;;
45836;SDS011;31548;51.420;-0.040;2023-02-12T06:07:05;11.18;;;6.70;;
45836;SDS011;31548;51.420;-0.040;2023-02-12T06:09:33;8.80;;;6.30;;
45836;SDS011;31548;51.420;-0.040;2023-02-12T06:12:00;11.23;;;7.13;;
45836;SDS011;31548;51.420;-0.040;2023-02-12T06:14:28;10.35;;;5.75;;
45836;SDS011;31548;51.420;-0.040;2023-02-12T06:16:57;8.27;;;5.70;;
45836;SDS011;31548;51.420;-0.040;2023-02-12T06:19:24;12.32;;;5.80;;
45836;SDS011;31548;51.420;-0.040;2023-02-12T06:21:52;8.13;;;5.20;;
45836;SDS011;31548;51.420;-0.040;2023-02-12T06:24:19;10.55;;;5.47;;
45836;SDS011;31548;51.420;-0.040;2023-02-12T06:26:48;11.25;;;5.50;;
45836;SDS011;31548;51.420;-0.040;2023-02-12T06:29:17;15.45;;;5.57;;
45836;SDS011;31548;51.420;-0.040;2023-02-12T06:31:44;10.50;;;5.50;;
45836;SDS011;31548;51.420;-0.040;2023-02-12T06:34:12;12.73;;;6.10;;
45836;SDS011;31548;51.420;-0.040;2023-02-12T06:36:43;13.15;;;5.22;;
45836;SDS011;31548;51.420;-0.040;2023-02-12T06:39:13;9.40;;;5.00;;
45836;SDS011;31548;51.420;-0.040;2023-02-12T06:41:41;11.90;;;5.47;;
45836;SDS011;31548;51.420;-0.040;2023-02-12T06:44:10;12.45;;;5.75;;
45836;SDS011;31548;51.420;-0.040;2023-02-12T06:46:38;11.85;;;5.72;;
45836;SDS011;31548;51.420;-0.040;2023-02-12T06:49:05;8.10;;;4.95;;
45836;SDS011;31548;51.420;-0.040;2023-02-12T06:51:33;10.55;;;5.25;;
45836;SDS011;31548;51.420;-0.040;2023-02-12T06:54:02;10.40;;;5.70;;
45836;SDS011;31548;51.420;-0.040;2023-02-12T06:56:29;7.43;;;4.90;;
45836;SDS011;31548;51.420;-0.040;2023-02-12T06:58:57;11.35;;;5.20;;
45836;SDS011;31548;51.420;-0.040;2023-02-12T07:01:27;8.13;;;4.97;;
45836;SDS011;31548;51.420;-0.040;2023-02-12T07:03:56;6.97;;;4.80;;
45836;SDS011;31548;51.420;-0.040;2023-02-12T07:06:28;7.95;;;4.82;;
45836;SDS011;31548;51.420;-0.040;2023-02-12T07:08:57;11.63;;;5.22;;
45836;SDS011;31548;51.420;-0.040;2023-02-12T07:11:25;8.70;;;4.65;;
45836;SDS011;31548;51.420;-0.040;2023-02-12T07:13:53;9.77;;;5.45;;
45836;SDS011;31548;51.420;-0.040;2023-02-12T07:16:20;12.50;;;5.35;;
45836;SDS011;31548;51.420;-0.040;2023-02-12T07:18:48;10.15;;;5.88;;
45836;SDS011;31548;51.420;-0.040;2023-02-12T07:21:16;11.13;;;5.32;;
45836;SDS011;31548;51.420;-0.040;2023-02-12T07:23:47;8.85;;;5.20;;
45836;SDS011;31548;51.420;-0.040;2023-02-12T07:26:17;8.80;;;4.97;;
45836;SDS011;31548;51.420;-0.040;2023-02-12T07:28:46;9.13;;;4.25;;
45836;SDS011;31548;51.420;-0.040;2023-02-12T07:31:15;10.40;;;5.00;;
45836;SDS011;31548;51.420;-0.040;2023-02-12T07:33:48;8.38;;;3.78;;
45836;SDS011;31548;51.420;-0.040;2023-02-12T07:36:19;6.70;;;3.63;;
45836;SDS011;31548;51.420;-0.040;2023-02-12T07:38:47;5.10;;;2.70;;
45836;SDS011;31548;51.420;-0.040;2023-02-12T07:41:16;8.38;;;2.95;;
45836;SDS011;31548;51.420;-0.040;2023-02-12T07:43:46;4.10;;;2.20;;
45836;SDS011;31548;51.420;-0.040;2023-02-12T07:46:16;2.80;;;1.75;;
45836;SDS011;31548;51.420;-0.040;2023-02-12T07:48:47;3.08;;;1.80;;
45836;SDS011;31548;51.420;-0.040;2023-02-12T07:51:15;3.53;;;1.40;;
45836;SDS011;31548;51.420;-0.040;2023-02-12T07:53:45;4.90;;;1.27;;
45836;SDS011;31548;51.420;-0.040;2023-02-12T07:56:14;3.55;;;1.30;;
45836;SDS011;31548;51.420;-0.040;2023-02-12T07:58:44;1.80;;;1.17;;
45836;SDS011;31548;51.420;-0.040;2023-02-12T08:01:16;3.97;;;1.20;;
45836;SDS011;31548;51.420;-0.040;2023-02-12T08:03:44;2.35;;;1.10;;
45836;SDS011;31548;51.420;-0.040;2023-02-12T08:06:13;5.20;;;1.70;;
45836;SDS011;31548;51.420;-0.040;2023-02-12T08:08:46;9.48;;;1.13;;
45836;SDS011;31548;51.420;-0.040;2023-02-12T08:11:13;2.92;;;1.33;;
45836;SDS011;31548;51.420;-0.040;2023-02-12T08:13:42;4.60;;;1.10;;
45836;SDS011;31548;51.420;-0.040;2023-02-12T08:16:10;3.20;;;1.25;;
45836;SDS011;31548;51.420;-0.040;2023-02-12T08:18:39;6.07;;;1.92;;
45836;SDS011;31548;51.420;-0.040;2023-02-12T08:21:08;2.92;;;1.27;;
45836;SDS011;31548;51.420;-0.040;2023-02-12T08:23:37;4.53;;;1.23;;
45836;SDS011;31548;51.420;-0.040;2023-02-12T08:28:33;3.20;;;1.35;;
45836;SDS011;31548;51.420;-0.040;2023-02-12T08:31:01;2.00;;;1.20;;
45836;SDS011;31548;51.420;-0.040;2023-02-12T08:33:30;2.80;;;1.60;;
45836;SDS011;31548;51.420;-0.040;2023-02-12T08:36:02;4.13;;;1.80;;
45836;SDS011;31548;51.420;-0.040;2023-02-12T08:38:35;8.10;;;2.70;;
45836;SDS011;31548;51.420;-0.040;2023-02-12T08:41:04;4.55;;;2.20;;
45836;SDS011;31548;51.420;-0.040;2023-02-12T08:43:33;3.95;;;1.58;;
45836;SDS011;31548;51.420;-0.040;2023-02-12T08:46:03;3.33;;;1.90;;
45836;SDS011;31548;51.420;-0.040;2023-02-12T08:48:38;3.70;;;1.48;;
45836;SDS011;31548;51.420;-0.040;2023-02-12T08:51:07;4.55;;;1.73;;
45836;SDS011;31548;51.420;-0.040;2023-02-12T08:53:37;3.22;;;1.30;;
45836;SDS011;31548;51.420;-0.040;2023-02-12T08:56:07;3.28;;;1.30;;
45836;SDS011;31548;51.420;-0.040;2023-02-12T08:58:35;2.80;;;1.25;;
45836;SDS011;31548;51.420;-0.040;2023-02-12T09:01:03;2.67;;;1.25;;
45836;SDS011;31548;51.420;-0.040;2023-02-12T09:03:34;2.50;;;1.23;;
45836;SDS011;31548;51.420;-0.040;2023-02-12T09:06:02;1.45;;;1.05;;
45836;SDS011;31548;51.420;-0.040;2023-02-12T09:08:31;4.97;;;1.33;;
45836;SDS011;31548;51.420;-0.040;2023-02-12T09:10:59;2.42;;;1.27;;
45836;SDS011;31548;51.420;-0.040;2023-02-12T09:13:29;3.17;;;1.38;;
45836;SDS011;31548;51.420;-0.040;2023-02-12T09:15:59;1.40;;;1.05;;
45836;SDS011;31548;51.420;-0.040;2023-02-12T09:18:28;1.75;;;1.00;;
45836;SDS011;31548;51.420;-0.040;2023-02-12T09:20:59;3.25;;;1.60;;
45836;SDS011;31548;51.420;-0.040;2023-02-12T09:23:31;2.40;;;1.65;;
45836;SDS011;31548;51.420;-0.040;2023-02-12T09:25:59;2.65;;;1.40;;
45836;SDS011;31548;51.420;-0.040;2023-02-12T09:28:34;3.35;;;1.50;;
45836;SDS011;31548;51.420;-0.040;2023-02-12T09:31:03;6.22;;;2.15;;
45836;SDS011;31548;51.420;-0.040;2023-02-12T09:33:38;3.05;;;1.80;;
45836;SDS011;31548;51.420;-0.040;2023-02-12T09:36:07;5.03;;;1.70;;
45836;SDS011;31548;51.420;-0.040;2023-02-12T09:38:39;5.05;;;1.60;;
45836;SDS011;31548;51.420;-0.040;2023-02-12T09:47:00;5.50;;;1.83;;
45836;SDS011;31548;51.420;-0.040;2023-02-12T09:52:13;4.85;;;1.40;;
45836;SDS011;31548;51.420;-0.040;2023-02-12T09:54:49;3.35;;;1.00;;
45836;SDS011;31548;51.420;-0.040;2023-02-12T10:00:02;2.38;;;1.35;;
45836;SDS011;31548;51.420;-0.040;2023-02-12T10:02:36;2.50;;;1.17;;
45836;SDS011;31548;51.420;-0.040;2023-02-12T10:05:16;2.60;;;1.00;;
45836;SDS011;31548;51.420;-0.040;2023-02-12T10:17:05;2.90;;;1.63;;
45836;SDS011;31548;51.420;-0.040;2023-02-12T10:27:37;1.75;;;0.70;;
45836;SDS011;31548;51.420;-0.040;2023-02-12T10:31:10;3.53;;;1.20;;
45836;SDS011;31548;51.420;-0.040;2023-02-12T10:33:06;3.38;;;1.35;;
45836;SDS011;31548;51.420;-0.040;2023-02-12T10:35:41;1.40;;;0.90;;
45836;SDS011;31548;51.420;-0.040;2023-02-12T10:38:13;1.40;;;0.90;;
45836;SDS011;31548;51.420;-0.040;2023-02-12T10:40:47;1.05;;;0.70;;
45836;SDS011;31548;51.420;-0.040;2023-02-12T10:43:15;1.20;;;0.60;;
45836;SDS011;31548;51.420;-0.040;2023-02-12T10:45:43;1.95;;;0.60;;
45836;SDS011;31548;51.420;-0.040;2023-02-12T10:48:15;0.68;;;0.50;;
45836;SDS011;31548;51.420;-0.040;2023-02-12T10:53:36;1.58;;;0.40;;
45836;SDS011;31548;51.420;-0.040;2023-02-12T10:56:27;1.67;;;0.50;;
45836;SDS011;31548;51.420;-0.040;2023-02-12T10:58:54;1.45;;;0.52;;
45836;SDS011;31548;51.420;-0.040;2023-02-12T11:01:32;1.60;;;0.57;;
45836;SDS011;31548;51.420;-0.040;2023-02-12T11:04:19;0.57;;;0.40;;
45836;SDS011;31548;51.420;-0.040;2023-02-12T11:09:28;1.05;;;0.50;;
45836;SDS011;31548;51.420;-0.040;2023-02-12T11:12:30;0.98;;;0.73;;
45836;SDS011;31548;51.420;-0.040;2023-02-12T11:14:59;1.55;;;0.35;;
45836;SDS011;31548;51.420;-0.040;2023-02-12T11:17:39;0.73;;;0.40;;
45836;SDS011;31548;51.420;-0.040;2023-02-12T11:23:00;0.40;;;0.40;;
45836;SDS011;31548;51.420;-0.040;2023-02-12T11:28:17;1.20;;;0.22;;
45836;SDS011;31548;51.420;-0.040;2023-02-12T11:30:49;1.05;;;0.32;;
45836;SDS011;31548;51.420;-0.040;2023-02-12T11:33:43;0.60;;;0.30;;
45836;SDS011;31548;51.420;-0.040;2023-02-12T11:36:24;0.88;;;0.50;;
45836;SDS011;31548;51.420;-0.040;2023-02-12T11:38:56;0.50;;;0.30;;
45836;SDS011;31548;51.420;-0.040;2023-02-12T11:44:10;2.63;;;0.50;;
45836;SDS011;31548;51.420;-0.040;2023-02-12T11:46:46;0.60;;;0.40;;
45836;SDS011;31548;51.420;-0.040;2023-02-12T11:49:29;0.43;;;0.32;;
45836;SDS011;31548;51.420;-0.040;2023-02-12T11:52:00;0.70;;;0.40;;
45836;SDS011;31548;51.420;-0.040;2023-02-12T11:54:29;1.17;;;0.60;;
45836;SDS011;31548;51.420;-0.040;2023-02-12T11:57:04;1.25;;;0.40;;
45836;SDS011;31548;51.420;-0.040;2023-02-12T11:59:35;0.93;;;0.50;;
45836;SDS011;31548;51.420;-0.040;2023-02-12T12:02:17;5.03;;;0.47;;
45836;SDS011;31548;51.420;-0.040;2023-02-12T12:05:02;0.57;;;0.40;;
45836;SDS011;31548;51.420;-0.040;2023-02-12T12:07:46;0.63;;;0.35;;
45836;SDS011;31548;51.420;-0.040;2023-02-12T12:10:36;0.50;;;0.38;;
45836;SDS011;31548;51.420;-0.040;2023-02-12T12:13:10;0.40;;;0.32;;
45836;SDS011;31548;51.420;-0.040;2023-02-12T12:15:43;0.50;;;0.40;;
45836;SDS011;31548;51.420;-0.040;2023-02-12T12:25:12;2.28;;;0.40;;
45836;SDS011;31548;51.420;-0.040;2023-02-12T12:36:27;0.40;;;0.38;;
45836;SDS011;31548;51.420;-0.040;2023-02-12T12:39:13;0.55;;;0.50;;
45836;SDS011;31548;51.420;-0.040;2023-02-12T12:47:28;0.93;;;0.50;;
45836;SDS011;31548;51.420;-0.040;2023-02-12T13:09:47;0.60;;;0.40;;
45836;SDS011;31548;51.420;-0.040;2023-02-12T13:12:22;0.68;;;0.50;;
45836;SDS011;31548;51.420;-0.040;2023-02-12T13:15:00;0.75;;;0.40;;
45836;SDS011;31548;51.420;-0.040;2023-02-12T13:17:38;0.65;;;0.40;;
45836;SDS011;31548;51.420;-0.040;2023-02-12T13:20:19;3.42;;;0.50;;
45836;SDS011;31548;51.420;-0.040;2023-02-12T13:25:39;1.05;;;0.50;;
45836;SDS011;31548;51.420;-0.040;2023-02-12T13:28:26;0.60;;;0.40;;
45836;SDS011;31548;51.420;-0.040;2023-02-12T13:31:02;1.53;;;0.60;;
45836;SDS011;31548;51.420;-0.040;2023-02-12T13:34:00;0.60;;;0.50;;
45836;SDS011;31548;51.420;-0.040;2023-02-12T13:36:31;0.60;;;0.50;;
45836;SDS011;31548;51.420;-0.040;2023-02-12T13:42:13;0.77;;;0.45;;
45836;SDS011;31548;51.420;-0.040;2023-02-12T13:44:48;1.63;;;0.50;;
45836;SDS011;31548;51.420;-0.040;2023-02-12T13:50:31;0.60;;;0.50;;
45836;SDS011;31548;51.420;-0.040;2023-02-12T13:53:18;2.03;;;0.52;;
45836;SDS011;31548;51.420;-0.040;2023-02-12T13:56:06;2.92;;;0.60;;
45836;SDS011;31548;51.420;-0.040;2023-02-12T13:58:53;1.67;;;0.60;;
45836;SDS011;31548;51.420;-0.040;2023-02-12T14:01:44;1.40;;;0.52;;
45836;SDS011;31548;51.420;-0.040;2023-02-12T14:09:36;0.77;;;0.57;;
45836;SDS011;31548;51.420;-0.040;2023-02-12T14:12:13;1.90;;;0.60;;
45836;SDS011;31548;51.420;-0.040;2023-02-12T14:17:52;1.05;;;0.60;;
45836;SDS011;31548;51.420;-0.040;2023-02-12T14:20:25;0.90;;;0.65;;
45836;SDS011;31548;51.420;-0.040;2023-02-12T14:22:59;0.93;;;0.60;;
45836;SDS011;31548;51.420;-0.040;2023-02-12T14:25:56;2.47;;;0.70;;
45836;SDS011;31548;51.420;-0.040;2023-02-12T14:28:33;1.42;;;0.60;;
45836;SDS011;31548;51.420;-0.040;2023-02-12T14:33:44;1.40;;;0.80;;
45836;SDS011;31548;51.420;-0.040;2023-02-12T14:36:14;1.70;;;0.80;;
45836;SDS011;31548;51.420;-0.040;2023-02-12T14:46:55;2.35;;;0.70;;
45836;SDS011;31548;51.420;-0.040;2023-02-12T14:52:13;1.90;;;0.80;;
45836;SDS011;31548;51.420;-0.040;2023-02-12T14:54:49;4.03;;;0.80;;
45836;SDS011;31548;51.420;-0.040;2023-02-12T14:57:26;0.73;;;0.50;;
45836;SDS011;31548;51.420;-0.040;2023-02-12T15:02:43;1.40;;;0.70;;
45836;SDS011;31548;51.420;-0.040;2023-02-12T15:05:25;2.83;;;0.70;;
45836;SDS011;31548;51.420;-0.040;2023-02-12T15:08:04;1.10;;;0.60;;
45836;SDS011;31548;51.420;-0.040;2023-02-12T15:10:39;1.67;;;0.60;;
45836;SDS011;31548;51.420;-0.040;2023-02-12T15:13:22;1.58;;;0.70;;
45836;SDS011;31548;51.420;-0.040;2023-02-12T15:16:00;1.10;;;0.60;;
45836;SDS011;31548;51.420;-0.040;2023-02-12T15:18:44;1.23;;;0.70;;
45836;SDS011;31548;51.420;-0.040;2023-02-12T15:21:27;1.27;;;0.80;;
45836;SDS011;31548;51.420;-0.040;2023-02-12T15:24:02;1.38;;;0.80;;
45836;SDS011;31548;51.420;-0.040;2023-02-12T15:29:15;1.23;;;0.80;;
45836;SDS011;31548;51.420;-0.040;2023-02-12T15:31:54;2.10;;;0.93;;
45836;SDS011;31548;51.420;-0.040;2023-02-12T15:34:25;2.10;;;0.90;;
45836;SDS011;31548;51.420;-0.040;2023-02-12T15:37:00;1.20;;;0.73;;
45836;SDS011;31548;51.420;-0.040;2023-02-12T15:39:36;2.05;;;0.90;;
45836;SDS011;31548;51.420;-0.040;2023-02-12T15:42:22;1.27;;;0.93;;
45836;SDS011;31548;51.420;-0.040;2023-02-12T15:45:06;2.00;;;1.00;;
45836;SDS011;31548;51.420;-0.040;2023-02-12T15:47:34;2.25;;;0.98;;
45836;SDS011;31548;51.420;-0.040;2023-02-12T15:50:02;3.10;;;1.13;;
45836;SDS011;31548;51.420;-0.040;2023-02-12T15:52:31;2.88;;;1.00;;
45836;SDS011;31548;51.420;-0.040;2023-02-12T15:55:02;4.47;;;1.50;;
45836;SDS011;31548;51.420;-0.040;2023-02-12T15:57:30;3.30;;;1.35;;
45836;SDS011;31548;51.420;-0.040;2023-02-12T16:00:03;2.97;;;0.95;;
45836;SDS011;31548;51.420;-0.040;2023-02-12T16:02:40;1.98;;;1.15;;
45836;SDS011;31548;51.420;-0.040;2023-02-12T16:05:09;3.50;;;1.08;;
45836;SDS011;31548;51.420;-0.040;2023-02-12T16:07:41;4.90;;;1.10;;
45836;SDS011;31548;51.420;-0.040;2023-02-12T16:10:13;3.15;;;1.17;;
45836;SDS011;31548;51.420;-0.040;2023-02-12T16:12:42;4.63;;;1.30;;
45836;SDS011;31548;51.420;-0.040;2023-02-12T16:18:20;2.53;;;0.77;;
45836;SDS011;31548;51.420;-0.040;2023-02-12T16:21:02;3.90;;;0.95;;
45836;SDS011;31548;51.420;-0.040;2023-02-12T16:23:31;1.88;;;0.90;;
45836;SDS011;31548;51.420;-0.040;2023-02-12T16:26:00;1.42;;;0.80;;
45836;SDS011;31548;51.420;-0.040;2023-02-12T16:28:29;1.00;;;0.70;;
45836;SDS011;31548;51.420;-0.040;2023-02-12T16:31:11;1.67;;;1.00;;
45836;SDS011;31548;51.420;-0.040;2023-02-12T16:46:46;2.53;;;1.27;;
45836;SDS011;31548;51.420;-0.040;2023-02-12T16:49:19;1.85;;;0.90;;
45836;SDS011;31548;51.420;-0.040;2023-02-12T16:51:49;3.25;;;1.00;;
45836;SDS011;31548;51.420;-0.040;2023-02-12T16:54:27;2.88;;;0.93;;
45836;SDS011;31548;51.420;-0.040;2023-02-12T16:56:55;1.80;;;1.25;;
45836;SDS011;31548;51.420;-0.040;2023-02-12T16:59:23;2.58;;;1.30;;
45836;SDS011;31548;51.420;-0.040;2023-02-12T17:02:01;2.70;;;1.10;;
45836;SDS011;31548;51.420;-0.040;2023-02-12T17:04:39;2.42;;;1.08;;
45836;SDS011;31548;51.420;-0.040;2023-02-12T17:07:23;2.80;;;1.10;;
45836;SDS011;31548;51.420;-0.040;2023-02-12T17:09:56;2.20;;;1.35;;
45836;SDS011;31548;51.420;-0.040;2023-02-12T17:12:24;3.28;;;1.20;;
45836;SDS011;31548;51.420;-0.040;2023-02-12T17:14:51;2.78;;;1.30;;
45836;SDS011;31548;51.420;-0.040;2023-02-12T17:17:20;3.03;;;1.00;;
45836;SDS011;31548;51.420;-0.040;2023-02-12T17:19:47;1.75;;;1.00;;
45836;SDS011;31548;51.420;-0.040;2023-02-12T17:22:22;3.85;;;1.10;;
45836;SDS011;31548;51.420;-0.040;2023-02-12T17:24:51;4.60;;;1.63;;
45836;SDS011;31548;51.420;-0.040;2023-02-12T17:27:19;2.78;;;1.13;;
45836;SDS011;31548;51.420;-0.040;2023-02-12T17:29:46;1.98;;;1.33;;
45836;SDS011;31548;51.420;-0.040;2023-02-12T17:32:13;7.78;;;3.05;;
45836;SDS011;31548;51.420;-0.040;2023-02-12T17:34:41;2.65;;;1.38;;
45836;SDS011;31548;51.420;-0.040;2023-02-12T17:37:15;4.05;;;1.83;;
45836;SDS011;31548;51.420;-0.040;2023-02-12T17:39:43;3.42;;;1.08;;
45836;SDS011;31548;51.420;-0.040;2023-02-12T17:42:11;3.70;;;1.13;;
45836;SDS011;31548;51.420;-0.040;2023-02-12T17:44:38;3.78;;;1.10;;
45836;SDS011;31548;51.420;-0.040;2023-02-12T17:47:07;2.55;;;1.25;;
45836;SDS011;31548;51.420;-0.040;2023-02-12T17:49:34;2.35;;;1.33;;
45836;SDS011;31548;51.420;-0.040;2023-02-12T17:52:01;2.58;;;1.40;;
45836;SDS011;31548;51.420;-0.040;2023-02-12T17:54:32;3.20;;;1.27;;
45836;SDS011;31548;51.420;-0.040;2023-02-12T17:56:59;2.47;;;1.23;;
45836;SDS011;31548;51.420;-0.040;2023-02-12T17:59:27;4.57;;;2.20;;
45836;SDS011;31548;51.420;-0.040;2023-02-12T18:01:58;4.20;;;1.50;;
45836;SDS011;31548;51.420;-0.040;2023-02-12T18:04:26;3.88;;;2.38;;
45836;SDS011;31548;51.420;-0.040;2023-02-12T18:06:55;2.85;;;1.48;;
45836;SDS011;31548;51.420;-0.040;2023-02-12T18:09:22;4.18;;;1.83;;
45836;SDS011;31548;51.420;-0.040;2023-02-12T18:11:49;4.45;;;1.95;;